sensor_id;sensor_type;location;lat;lon;timestamp;P1;durP1;ratioP1;P2;durP2;ratioP2
62848;SDS011;48941;49.516;8.286;2023-03-01T00:00:17;15.73;;;8.15;;
62848;SDS011;48941;49.516;8.286;2023-03-01T00:02:45;19.08;;;8.65;;
62848;SDS011;48941;49.516;8.286;2023-03-01T00:05:13;16.45;;;8.52;;
62848;SDS011;48941;49.516;8.286;2023-03-01T00:07:42;16.50;;;9.18;;
62848;SDS011;48941;49.516;8.286;2023-03-01T00:10:10;13.80;;;7.70;;
62848;SDS011;48941;49.516;8.286;2023-03-01T00:12:38;17.25;;;8.25;;
62848;SDS011;48941;49.516;8.286;2023-03-01T00:15:07;13.75;;;8.05;;
62848;SDS011;48941;49.516;8.286;2023-03-01T00:17:36;14.48;;;8.32;;
62848;SDS011;48941;49.516;8.286;2023-03-01T00:20:05;17.30;;;8.73;;
62848;SDS011;48941;49.516;8.286;2023-03-01T00:22:36;16.33;;;8.82;;
62848;SDS011;48941;49.516;8.286;2023-03-01T00:25:05;14.10;;;8.25;;
62848;SDS011;48941;49.516;8.286;2023-03-01T00:27:34;17.52;;;8.63;;
62848;SDS011;48941;49.516;8.286;2023-03-01T00:30:02;14.90;;;9.15;;
62848;SDS011;48941;49.516;8.286;2023-03-01T00:32:30;19.23;;;8.93;;
62848;SDS011;48941;49.516;8.286;2023-03-01T00:34:57;18.92;;;8.73;;
62848;SDS011;48941;49.516;8.286;2023-03-01T00:37:25;15.60;;;8.70;;
62848;SDS011;48941;49.516;8.286;2023-03-01T00:39:53;16.38;;;8.77;;
62848;SDS011;48941;49.516;8.286;2023-03-01T00:42:22;16.60;;;9.20;;
62848;SDS011;48941;49.516;8.286;2023-03-01T00:44:50;17.58;;;9.50;;
62848;SDS011;48941;49.516;8.286;2023-03-01T00:47:18;16.50;;;9.10;;
62848;SDS011;48941;49.516;8.286;2023-03-01T00:49:45;13.55;;;8.75;;
62848;SDS011;48941;49.516;8.286;2023-03-01T00:52:13;15.35;;;8.70;;
62848;SDS011;48941;49.516;8.286;2023-03-01T00:54:41;16.65;;;9.32;;
62848;SDS011;48941;49.516;8.286;2023-03-01T00:57:08;18.40;;;9.15;;
62848;SDS011;48941;49.516;8.286;2023-03-01T00:59:38;16.45;;;9.07;;
62848;SDS011;48941;49.516;8.286;2023-03-01T01:02:05;17.13;;;9.13;;
62848;SDS011;48941;49.516;8.286;2023-03-01T01:04:33;17.85;;;9.45;;
62848;SDS011;48941;49.516;8.286;2023-03-01T01:07:01;18.90;;;9.10;;
62848;SDS011;48941;49.516;8.286;2023-03-01T01:09:28;15.95;;;9.20;;
62848;SDS011;48941;49.516;8.286;2023-03-01T01:11:56;17.60;;;8.85;;
62848;SDS011;48941;49.516;8.286;2023-03-01T01:14:24;16.65;;;9.27;;
62848;SDS011;48941;49.516;8.286;2023-03-01T01:16:53;17.15;;;9.18;;
62848;SDS011;48941;49.516;8.286;2023-03-01T01:19:21;18.27;;;9.52;;
62848;SDS011;48941;49.516;8.286;2023-03-01T01:21:49;16.75;;;9.07;;
62848;SDS011;48941;49.516;8.286;2023-03-01T01:24:18;14.90;;;8.50;;
62848;SDS011;48941;49.516;8.286;2023-03-01T01:26:46;18.60;;;9.43;;
62848;SDS011;48941;49.516;8.286;2023-03-01T01:29:14;18.10;;;9.05;;
62848;SDS011;48941;49.516;8.286;2023-03-01T01:31:42;20.27;;;8.90;;
62848;SDS011;48941;49.516;8.286;2023-03-01T01:34:14;13.60;;;8.40;;
62848;SDS011;48941;49.516;8.286;2023-03-01T01:36:43;16.30;;;9.45;;
62848;SDS011;48941;49.516;8.286;2023-03-01T01:39:11;17.20;;;8.90;;
62848;SDS011;48941;49.516;8.286;2023-03-01T01:41:40;18.33;;;9.63;;
62848;SDS011;48941;49.516;8.286;2023-03-01T01:44:16;16.98;;;9.32;;
62848;SDS011;48941;49.516;8.286;2023-03-01T01:46:46;16.63;;;9.02;;
62848;SDS011;48941;49.516;8.286;2023-03-01T01:49:24;15.50;;;9.30;;
62848;SDS011;48941;49.516;8.286;2023-03-01T01:51:57;15.50;;;8.95;;
62848;SDS011;48941;49.516;8.286;2023-03-01T01:54:35;16.02;;;9.10;;
62848;SDS011;48941;49.516;8.286;2023-03-01T01:57:09;18.80;;;9.65;;
62848;SDS011;48941;49.516;8.286;2023-03-01T01:59:40;15.10;;;9.85;;
62848;SDS011;48941;49.516;8.286;2023-03-01T02:02:12;19.92;;;10.23;;
62848;SDS011;48941;49.516;8.286;2023-03-01T02:04:42;16.90;;;9.48;;
62848;SDS011;48941;49.516;8.286;2023-03-01T02:07:13;19.45;;;9.77;;
62848;SDS011;48941;49.516;8.286;2023-03-01T02:09:43;23.23;;;9.77;;
62848;SDS011;48941;49.516;8.286;2023-03-01T02:12:14;21.73;;;9.65;;
62848;SDS011;48941;49.516;8.286;2023-03-01T02:14:43;19.67;;;9.48;;
62848;SDS011;48941;49.516;8.286;2023-03-01T02:17:13;19.50;;;9.90;;
62848;SDS011;48941;49.516;8.286;2023-03-01T02:19:47;19.02;;;9.93;;
62848;SDS011;48941;49.516;8.286;2023-03-01T02:22:25;20.15;;;9.50;;
62848;SDS011;48941;49.516;8.286;2023-03-01T02:24:59;15.50;;;8.60;;
62848;SDS011;48941;49.516;8.286;2023-03-01T02:27:38;17.85;;;9.60;;
62848;SDS011;48941;49.516;8.286;2023-03-01T02:30:13;17.98;;;9.63;;
62848;SDS011;48941;49.516;8.286;2023-03-01T02:32:41;17.33;;;9.45;;
62848;SDS011;48941;49.516;8.286;2023-03-01T02:35:09;18.73;;;10.30;;
62848;SDS011;48941;49.516;8.286;2023-03-01T02:37:39;20.95;;;9.68;;
62848;SDS011;48941;49.516;8.286;2023-03-01T02:40:10;17.98;;;9.77;;
62848;SDS011;48941;49.516;8.286;2023-03-01T02:42:45;17.67;;;9.93;;
62848;SDS011;48941;49.516;8.286;2023-03-01T02:45:18;18.08;;;10.10;;
62848;SDS011;48941;49.516;8.286;2023-03-01T02:47:46;18.30;;;9.57;;
62848;SDS011;48941;49.516;8.286;2023-03-01T02:50:15;16.83;;;9.45;;
62848;SDS011;48941;49.516;8.286;2023-03-01T02:52:53;16.25;;;9.38;;
62848;SDS011;48941;49.516;8.286;2023-03-01T02:55:24;16.73;;;9.82;;
62848;SDS011;48941;49.516;8.286;2023-03-01T02:57:53;19.27;;;10.20;;
62848;SDS011;48941;49.516;8.286;2023-03-01T03:00:24;20.42;;;9.65;;
62848;SDS011;48941;49.516;8.286;2023-03-01T03:02:55;20.20;;;9.80;;
62848;SDS011;48941;49.516;8.286;2023-03-01T03:05:24;21.42;;;9.77;;
62848;SDS011;48941;49.516;8.286;2023-03-01T03:07:54;16.85;;;9.68;;
62848;SDS011;48941;49.516;8.286;2023-03-01T03:10:23;16.42;;;9.82;;
62848;SDS011;48941;49.516;8.286;2023-03-01T03:12:54;22.20;;;9.98;;
62848;SDS011;48941;49.516;8.286;2023-03-01T03:15:24;20.10;;;9.90;;
62848;SDS011;48941;49.516;8.286;2023-03-01T03:17:54;20.48;;;10.27;;
62848;SDS011;48941;49.516;8.286;2023-03-01T03:20:24;17.80;;;9.52;;
62848;SDS011;48941;49.516;8.286;2023-03-01T03:22:54;19.50;;;9.55;;
62848;SDS011;48941;49.516;8.286;2023-03-01T03:25:24;23.20;;;10.40;;
62848;SDS011;48941;49.516;8.286;2023-03-01T03:27:53;18.88;;;10.07;;
62848;SDS011;48941;49.516;8.286;2023-03-01T03:30:25;18.85;;;10.27;;
62848;SDS011;48941;49.516;8.286;2023-03-01T03:32:54;20.48;;;10.27;;
62848;SDS011;48941;49.516;8.286;2023-03-01T03:35:23;18.17;;;9.70;;
62848;SDS011;48941;49.516;8.286;2023-03-01T03:37:54;20.02;;;10.32;;
62848;SDS011;48941;49.516;8.286;2023-03-01T03:40:33;17.35;;;9.35;;
62848;SDS011;48941;49.516;8.286;2023-03-01T03:43:03;19.05;;;9.73;;
62848;SDS011;48941;49.516;8.286;2023-03-01T03:45:33;20.80;;;10.65;;
62848;SDS011;48941;49.516;8.286;2023-03-01T03:48:02;20.35;;;9.98;;
62848;SDS011;48941;49.516;8.286;2023-03-01T03:50:32;20.35;;;10.32;;
62848;SDS011;48941;49.516;8.286;2023-03-01T03:53:01;18.90;;;9.73;;
62848;SDS011;48941;49.516;8.286;2023-03-01T03:55:31;20.00;;;10.50;;
62848;SDS011;48941;49.516;8.286;2023-03-01T03:58:00;15.48;;;9.38;;
62848;SDS011;48941;49.516;8.286;2023-03-01T04:00:35;20.33;;;9.27;;
62848;SDS011;48941;49.516;8.286;2023-03-01T04:03:04;19.58;;;10.07;;
62848;SDS011;48941;49.516;8.286;2023-03-01T04:05:32;17.67;;;9.50;;
62848;SDS011;48941;49.516;8.286;2023-03-01T04:08:01;21.73;;;10.38;;
62848;SDS011;48941;49.516;8.286;2023-03-01T04:10:30;22.30;;;10.43;;
62848;SDS011;48941;49.516;8.286;2023-03-01T04:12:59;23.77;;;11.68;;
62848;SDS011;48941;49.516;8.286;2023-03-01T04:15:27;21.00;;;10.35;;
62848;SDS011;48941;49.516;8.286;2023-03-01T04:17:57;21.33;;;10.95;;
62848;SDS011;48941;49.516;8.286;2023-03-01T04:20:27;20.42;;;10.40;;
62848;SDS011;48941;49.516;8.286;2023-03-01T04:22:57;17.73;;;10.50;;
62848;SDS011;48941;49.516;8.286;2023-03-01T04:25:26;21.70;;;10.93;;
62848;SDS011;48941;49.516;8.286;2023-03-01T04:27:54;17.42;;;9.45;;
62848;SDS011;48941;49.516;8.286;2023-03-01T04:30:22;21.42;;;11.13;;
62848;SDS011;48941;49.516;8.286;2023-03-01T04:32:51;21.70;;;10.27;;
62848;SDS011;48941;49.516;8.286;2023-03-01T04:35:20;19.67;;;10.95;;
62848;SDS011;48941;49.516;8.286;2023-03-01T04:37:49;19.75;;;10.35;;
62848;SDS011;48941;49.516;8.286;2023-03-01T04:40:17;19.55;;;10.45;;
62848;SDS011;48941;49.516;8.286;2023-03-01T04:42:45;20.35;;;10.82;;
62848;SDS011;48941;49.516;8.286;2023-03-01T04:45:13;20.17;;;10.90;;
62848;SDS011;48941;49.516;8.286;2023-03-01T04:47:41;18.02;;;9.00;;
62848;SDS011;48941;49.516;8.286;2023-03-01T04:50:12;19.60;;;10.73;;
62848;SDS011;48941;49.516;8.286;2023-03-01T04:52:43;23.10;;;10.88;;
62848;SDS011;48941;49.516;8.286;2023-03-01T04:55:12;18.30;;;10.63;;
62848;SDS011;48941;49.516;8.286;2023-03-01T04:57:40;22.35;;;11.13;;
62848;SDS011;48941;49.516;8.286;2023-03-01T05:00:10;21.23;;;10.02;;
62848;SDS011;48941;49.516;8.286;2023-03-01T05:02:47;21.08;;;11.43;;
62848;SDS011;48941;49.516;8.286;2023-03-01T05:05:20;18.98;;;11.13;;
62848;SDS011;48941;49.516;8.286;2023-03-01T05:07:56;20.10;;;10.95;;
62848;SDS011;48941;49.516;8.286;2023-03-01T05:10:26;22.10;;;11.38;;
62848;SDS011;48941;49.516;8.286;2023-03-01T05:12:56;21.77;;;11.27;;
62848;SDS011;48941;49.516;8.286;2023-03-01T05:15:25;20.40;;;11.00;;
62848;SDS011;48941;49.516;8.286;2023-03-01T05:17:54;22.88;;;10.73;;
62848;SDS011;48941;49.516;8.286;2023-03-01T05:20:25;26.92;;;11.90;;
62848;SDS011;48941;49.516;8.286;2023-03-01T05:22:56;22.85;;;10.65;;
62848;SDS011;48941;49.516;8.286;2023-03-01T05:25:26;21.60;;;10.77;;
62848;SDS011;48941;49.516;8.286;2023-03-01T05:27:59;19.35;;;10.98;;
62848;SDS011;48941;49.516;8.286;2023-03-01T05:30:31;26.52;;;11.38;;
62848;SDS011;48941;49.516;8.286;2023-03-01T05:32:59;22.35;;;11.38;;
62848;SDS011;48941;49.516;8.286;2023-03-01T05:35:28;20.15;;;10.38;;
62848;SDS011;48941;49.516;8.286;2023-03-01T05:38:00;18.73;;;9.75;;
62848;SDS011;48941;49.516;8.286;2023-03-01T05:40:28;22.27;;;11.20;;
62848;SDS011;48941;49.516;8.286;2023-03-01T05:42:56;25.02;;;11.40;;
62848;SDS011;48941;49.516;8.286;2023-03-01T05:45:25;23.77;;;12.05;;
62848;SDS011;48941;49.516;8.286;2023-03-01T05:47:54;22.13;;;10.80;;
62848;SDS011;48941;49.516;8.286;2023-03-01T05:50:23;17.77;;;10.70;;
62848;SDS011;48941;49.516;8.286;2023-03-01T05:52:56;21.00;;;11.13;;
62848;SDS011;48941;49.516;8.286;2023-03-01T05:55:27;20.15;;;10.38;;
62848;SDS011;48941;49.516;8.286;2023-03-01T05:57:57;22.92;;;11.18;;
62848;SDS011;48941;49.516;8.286;2023-03-01T06:00:26;29.83;;;11.38;;
62848;SDS011;48941;49.516;8.286;2023-03-01T06:02:58;21.45;;;10.57;;
62848;SDS011;48941;49.516;8.286;2023-03-01T06:05:29;19.83;;;10.48;;
62848;SDS011;48941;49.516;8.286;2023-03-01T06:07:58;20.70;;;10.82;;
62848;SDS011;48941;49.516;8.286;2023-03-01T06:10:28;22.90;;;9.90;;
62848;SDS011;48941;49.516;8.286;2023-03-01T06:12:57;21.20;;;11.55;;
62848;SDS011;48941;49.516;8.286;2023-03-01T06:15:25;20.45;;;11.18;;
62848;SDS011;48941;49.516;8.286;2023-03-01T06:17:54;19.60;;;11.65;;
62848;SDS011;48941;49.516;8.286;2023-03-01T06:20:26;21.40;;;10.85;;
62848;SDS011;48941;49.516;8.286;2023-03-01T06:22:55;24.52;;;11.32;;
62848;SDS011;48941;49.516;8.286;2023-03-01T06:25:25;21.17;;;11.45;;
62848;SDS011;48941;49.516;8.286;2023-03-01T06:27:55;20.80;;;10.50;;
62848;SDS011;48941;49.516;8.286;2023-03-01T06:30:24;19.90;;;11.20;;
62848;SDS011;48941;49.516;8.286;2023-03-01T06:32:53;22.27;;;11.60;;
62848;SDS011;48941;49.516;8.286;2023-03-01T06:35:27;20.45;;;11.25;;
62848;SDS011;48941;49.516;8.286;2023-03-01T06:37:57;21.58;;;10.40;;
62848;SDS011;48941;49.516;8.286;2023-03-01T06:40:25;19.77;;;10.95;;
62848;SDS011;48941;49.516;8.286;2023-03-01T06:42:55;22.13;;;11.23;;
62848;SDS011;48941;49.516;8.286;2023-03-01T06:45:23;21.48;;;10.73;;
62848;SDS011;48941;49.516;8.286;2023-03-01T06:47:51;20.80;;;10.30;;
62848;SDS011;48941;49.516;8.286;2023-03-01T06:50:20;21.13;;;11.55;;
62848;SDS011;48941;49.516;8.286;2023-03-01T06:52:48;21.20;;;11.85;;
62848;SDS011;48941;49.516;8.286;2023-03-01T06:55:22;19.58;;;10.82;;
62848;SDS011;48941;49.516;8.286;2023-03-01T06:57:53;21.23;;;10.75;;
62848;SDS011;48941;49.516;8.286;2023-03-01T07:02:51;19.95;;;10.55;;
62848;SDS011;48941;49.516;8.286;2023-03-01T07:05:19;24.25;;;11.43;;
62848;SDS011;48941;49.516;8.286;2023-03-01T07:07:48;21.02;;;11.27;;
62848;SDS011;48941;49.516;8.286;2023-03-01T07:10:16;24.17;;;11.82;;
62848;SDS011;48941;49.516;8.286;2023-03-01T07:12:44;20.40;;;11.40;;
62848;SDS011;48941;49.516;8.286;2023-03-01T07:15:14;21.45;;;11.77;;
62848;SDS011;48941;49.516;8.286;2023-03-01T07:17:42;23.63;;;12.30;;
62848;SDS011;48941;49.516;8.286;2023-03-01T07:20:11;22.33;;;12.20;;
62848;SDS011;48941;49.516;8.286;2023-03-01T07:22:40;20.90;;;12.15;;
62848;SDS011;48941;49.516;8.286;2023-03-01T07:25:08;20.20;;;11.15;;
62848;SDS011;48941;49.516;8.286;2023-03-01T07:27:37;24.42;;;12.70;;
62848;SDS011;48941;49.516;8.286;2023-03-01T07:30:05;22.42;;;11.05;;
62848;SDS011;48941;49.516;8.286;2023-03-01T07:32:36;23.02;;;12.50;;
62848;SDS011;48941;49.516;8.286;2023-03-01T07:35:05;18.90;;;11.27;;
62848;SDS011;48941;49.516;8.286;2023-03-01T07:37:33;21.25;;;11.75;;
62848;SDS011;48941;49.516;8.286;2023-03-01T07:40:01;28.75;;;11.82;;
62848;SDS011;48941;49.516;8.286;2023-03-01T07:42:30;22.20;;;11.32;;
62848;SDS011;48941;49.516;8.286;2023-03-01T07:44:58;21.42;;;11.50;;
62848;SDS011;48941;49.516;8.286;2023-03-01T07:47:25;20.77;;;11.13;;
62848;SDS011;48941;49.516;8.286;2023-03-01T07:49:55;20.30;;;11.27;;
62848;SDS011;48941;49.516;8.286;2023-03-01T07:52:22;20.27;;;11.57;;
62848;SDS011;48941;49.516;8.286;2023-03-01T07:54:50;30.42;;;11.27;;
62848;SDS011;48941;49.516;8.286;2023-03-01T07:57:18;22.23;;;11.77;;
62848;SDS011;48941;49.516;8.286;2023-03-01T07:59:46;20.10;;;11.05;;
62848;SDS011;48941;49.516;8.286;2023-03-01T08:02:14;22.38;;;11.85;;
62848;SDS011;48941;49.516;8.286;2023-03-01T08:04:42;24.77;;;11.18;;
62848;SDS011;48941;49.516;8.286;2023-03-01T08:07:11;20.15;;;11.73;;
62848;SDS011;48941;49.516;8.286;2023-03-01T08:09:39;23.50;;;11.88;;
62848;SDS011;48941;49.516;8.286;2023-03-01T08:12:06;26.70;;;12.10;;
62848;SDS011;48941;49.516;8.286;2023-03-01T08:14:34;23.40;;;11.70;;
62848;SDS011;48941;49.516;8.286;2023-03-01T08:17:02;23.35;;;11.20;;
62848;SDS011;48941;49.516;8.286;2023-03-01T08:19:30;26.23;;;11.77;;
62848;SDS011;48941;49.516;8.286;2023-03-01T08:21:59;19.83;;;11.18;;
62848;SDS011;48941;49.516;8.286;2023-03-01T08:24:28;19.92;;;11.35;;
62848;SDS011;48941;49.516;8.286;2023-03-01T08:26:56;23.30;;;11.45;;
62848;SDS011;48941;49.516;8.286;2023-03-01T08:29:24;23.63;;;12.88;;
62848;SDS011;48941;49.516;8.286;2023-03-01T08:31:52;20.92;;;11.95;;
62848;SDS011;48941;49.516;8.286;2023-03-01T08:34:21;21.15;;;12.25;;
62848;SDS011;48941;49.516;8.286;2023-03-01T08:36:48;22.45;;;12.30;;
62848;SDS011;48941;49.516;8.286;2023-03-01T08:39:18;23.95;;;11.93;;
62848;SDS011;48941;49.516;8.286;2023-03-01T08:41:48;24.35;;;12.32;;
62848;SDS011;48941;49.516;8.286;2023-03-01T08:44:16;21.20;;;12.50;;
62848;SDS011;48941;49.516;8.286;2023-03-01T08:46:44;20.90;;;12.40;;
62848;SDS011;48941;49.516;8.286;2023-03-01T08:49:13;22.80;;;11.82;;
62848;SDS011;48941;49.516;8.286;2023-03-01T08:51:43;21.65;;;11.63;;
62848;SDS011;48941;49.516;8.286;2023-03-01T08:54:12;20.98;;;11.93;;
62848;SDS011;48941;49.516;8.286;2023-03-01T08:56:42;19.85;;;11.82;;
62848;SDS011;48941;49.516;8.286;2023-03-01T08:59:11;23.23;;;12.25;;
62848;SDS011;48941;49.516;8.286;2023-03-01T09:01:40;21.85;;;12.75;;
62848;SDS011;48941;49.516;8.286;2023-03-01T09:04:09;24.42;;;12.00;;
62848;SDS011;48941;49.516;8.286;2023-03-01T09:06:37;20.98;;;12.20;;
62848;SDS011;48941;49.516;8.286;2023-03-01T09:09:06;18.48;;;11.90;;
62848;SDS011;48941;49.516;8.286;2023-03-01T09:11:41;20.88;;;12.45;;
62848;SDS011;48941;49.516;8.286;2023-03-01T09:14:11;23.23;;;12.38;;
62848;SDS011;48941;49.516;8.286;2023-03-01T09:16:39;23.88;;;12.38;;
62848;SDS011;48941;49.516;8.286;2023-03-01T09:19:07;21.98;;;12.23;;
62848;SDS011;48941;49.516;8.286;2023-03-01T09:21:35;21.20;;;12.25;;
62848;SDS011;48941;49.516;8.286;2023-03-01T09:24:06;21.23;;;12.57;;
62848;SDS011;48941;49.516;8.286;2023-03-01T09:26:39;19.90;;;12.27;;
62848;SDS011;48941;49.516;8.286;2023-03-01T09:29:07;24.20;;;13.35;;
62848;SDS011;48941;49.516;8.286;2023-03-01T09:31:38;23.25;;;13.27;;
62848;SDS011;48941;49.516;8.286;2023-03-01T09:34:06;21.88;;;12.93;;
62848;SDS011;48941;49.516;8.286;2023-03-01T09:36:35;24.48;;;13.25;;
62848;SDS011;48941;49.516;8.286;2023-03-01T09:39:03;22.38;;;12.88;;
62848;SDS011;48941;49.516;8.286;2023-03-01T09:41:38;26.40;;;12.35;;
62848;SDS011;48941;49.516;8.286;2023-03-01T09:44:25;21.88;;;12.57;;
62848;SDS011;48941;49.516;8.286;2023-03-01T09:46:59;23.35;;;12.75;;
62848;SDS011;48941;49.516;8.286;2023-03-01T09:49:28;23.63;;;13.43;;
62848;SDS011;48941;49.516;8.286;2023-03-01T09:51:59;19.85;;;12.70;;
62848;SDS011;48941;49.516;8.286;2023-03-01T09:54:31;23.48;;;12.73;;
62848;SDS011;48941;49.516;8.286;2023-03-01T09:57:05;20.65;;;12.75;;
62848;SDS011;48941;49.516;8.286;2023-03-01T09:59:45;22.55;;;12.93;;
62848;SDS011;48941;49.516;8.286;2023-03-01T10:02:26;28.70;;;12.95;;
62848;SDS011;48941;49.516;8.286;2023-03-01T10:04:59;21.27;;;11.90;;
62848;SDS011;48941;49.516;8.286;2023-03-01T10:07:42;25.35;;;13.48;;
62848;SDS011;48941;49.516;8.286;2023-03-01T10:10:18;22.23;;;12.45;;
62848;SDS011;48941;49.516;8.286;2023-03-01T10:12:54;25.05;;;12.60;;
62848;SDS011;48941;49.516;8.286;2023-03-01T10:15:25;27.15;;;13.38;;
62848;SDS011;48941;49.516;8.286;2023-03-01T10:18:03;23.77;;;13.82;;
62848;SDS011;48941;49.516;8.286;2023-03-01T10:20:37;21.73;;;13.25;;
62848;SDS011;48941;49.516;8.286;2023-03-01T10:23:11;25.58;;;14.82;;
62848;SDS011;48941;49.516;8.286;2023-03-01T10:25:43;23.00;;;12.57;;
62848;SDS011;48941;49.516;8.286;2023-03-01T10:28:16;24.20;;;13.80;;
62848;SDS011;48941;49.516;8.286;2023-03-01T10:30:47;21.50;;;12.75;;
62848;SDS011;48941;49.516;8.286;2023-03-01T10:33:17;21.90;;;12.77;;
62848;SDS011;48941;49.516;8.286;2023-03-01T10:35:49;22.27;;;12.98;;
62848;SDS011;48941;49.516;8.286;2023-03-01T10:38:17;22.17;;;13.73;;
62848;SDS011;48941;49.516;8.286;2023-03-01T10:40:50;22.90;;;13.63;;
62848;SDS011;48941;49.516;8.286;2023-03-01T10:43:20;26.60;;;13.60;;
62848;SDS011;48941;49.516;8.286;2023-03-01T10:45:49;22.02;;;13.57;;
62848;SDS011;48941;49.516;8.286;2023-03-01T10:48:19;20.90;;;13.32;;
62848;SDS011;48941;49.516;8.286;2023-03-01T10:50:51;21.92;;;14.10;;
62848;SDS011;48941;49.516;8.286;2023-03-01T10:53:33;24.40;;;14.07;;
62848;SDS011;48941;49.516;8.286;2023-03-01T10:56:03;23.45;;;14.15;;
62848;SDS011;48941;49.516;8.286;2023-03-01T10:58:33;22.73;;;13.27;;
62848;SDS011;48941;49.516;8.286;2023-03-01T11:01:04;28.63;;;13.45;;
62848;SDS011;48941;49.516;8.286;2023-03-01T11:04:03;23.25;;;14.13;;
62848;SDS011;48941;49.516;8.286;2023-03-01T11:06:40;28.80;;;15.60;;
62848;SDS011;48941;49.516;8.286;2023-03-01T11:09:15;21.45;;;13.23;;
62848;SDS011;48941;49.516;8.286;2023-03-01T11:11:45;23.63;;;14.18;;
62848;SDS011;48941;49.516;8.286;2023-03-01T11:14:14;29.60;;;14.07;;
62848;SDS011;48941;49.516;8.286;2023-03-01T11:16:59;24.15;;;12.88;;
62848;SDS011;48941;49.516;8.286;2023-03-01T11:19:30;21.90;;;13.38;;
62848;SDS011;48941;49.516;8.286;2023-03-01T11:21:59;23.67;;;13.88;;
62848;SDS011;48941;49.516;8.286;2023-03-01T11:24:33;25.98;;;13.88;;
62848;SDS011;48941;49.516;8.286;2023-03-01T11:27:12;22.65;;;13.75;;
62848;SDS011;48941;49.516;8.286;2023-03-01T11:29:45;27.13;;;13.13;;
62848;SDS011;48941;49.516;8.286;2023-03-01T11:32:17;23.92;;;14.00;;
62848;SDS011;48941;49.516;8.286;2023-03-01T11:34:51;21.40;;;13.70;;
62848;SDS011;48941;49.516;8.286;2023-03-01T11:37:28;25.02;;;13.63;;
62848;SDS011;48941;49.516;8.286;2023-03-01T11:40:05;23.58;;;13.50;;
62848;SDS011;48941;49.516;8.286;2023-03-01T11:42:45;26.10;;;14.13;;
62848;SDS011;48941;49.516;8.286;2023-03-01T11:45:22;22.65;;;13.73;;
62848;SDS011;48941;49.516;8.286;2023-03-01T11:47:55;22.52;;;13.02;;
62848;SDS011;48941;49.516;8.286;2023-03-01T11:50:38;24.70;;;14.43;;
62848;SDS011;48941;49.516;8.286;2023-03-01T11:53:14;29.02;;;13.75;;
62848;SDS011;48941;49.516;8.286;2023-03-01T11:55:57;21.38;;;13.50;;
62848;SDS011;48941;49.516;8.286;2023-03-01T11:58:37;21.77;;;13.40;;
62848;SDS011;48941;49.516;8.286;2023-03-01T12:01:22;20.55;;;12.88;;
62848;SDS011;48941;49.516;8.286;2023-03-01T12:04:08;21.13;;;13.00;;
62848;SDS011;48941;49.516;8.286;2023-03-01T12:06:54;23.23;;;13.25;;
62848;SDS011;48941;49.516;8.286;2023-03-01T12:09:29;22.67;;;13.27;;
62848;SDS011;48941;49.516;8.286;2023-03-01T12:12:12;17.98;;;12.07;;
62848;SDS011;48941;49.516;8.286;2023-03-01T12:15:03;20.83;;;12.85;;
62848;SDS011;48941;49.516;8.286;2023-03-01T12:17:54;23.20;;;13.25;;
62848;SDS011;48941;49.516;8.286;2023-03-01T12:20:34;21.67;;;12.73;;
62848;SDS011;48941;49.516;8.286;2023-03-01T12:23:25;20.08;;;12.80;;
62848;SDS011;48941;49.516;8.286;2023-03-01T12:26:10;21.27;;;12.98;;
62848;SDS011;48941;49.516;8.286;2023-03-01T12:28:47;22.52;;;12.88;;
62848;SDS011;48941;49.516;8.286;2023-03-01T12:31:33;19.15;;;12.38;;
62848;SDS011;48941;49.516;8.286;2023-03-01T12:34:12;20.08;;;11.52;;
62848;SDS011;48941;49.516;8.286;2023-03-01T12:36:59;19.00;;;12.05;;
62848;SDS011;48941;49.516;8.286;2023-03-01T12:39:44;20.88;;;12.60;;
62848;SDS011;48941;49.516;8.286;2023-03-01T12:42:23;19.02;;;12.20;;
62848;SDS011;48941;49.516;8.286;2023-03-01T12:45:02;20.45;;;11.38;;
62848;SDS011;48941;49.516;8.286;2023-03-01T12:47:58;19.13;;;12.27;;
62848;SDS011;48941;49.516;8.286;2023-03-01T12:50:39;19.42;;;11.52;;
62848;SDS011;48941;49.516;8.286;2023-03-01T12:53:15;20.35;;;11.95;;
62848;SDS011;48941;49.516;8.286;2023-03-01T12:55:50;20.75;;;11.40;;
62848;SDS011;48941;49.516;8.286;2023-03-01T12:58:24;19.90;;;12.48;;
62848;SDS011;48941;49.516;8.286;2023-03-01T13:01:16;18.50;;;12.38;;
62848;SDS011;48941;49.516;8.286;2023-03-01T13:07:06;19.85;;;11.93;;
62848;SDS011;48941;49.516;8.286;2023-03-01T13:09:48;17.50;;;11.70;;
62848;SDS011;48941;49.516;8.286;2023-03-01T13:15:30;17.45;;;11.07;;
62848;SDS011;48941;49.516;8.286;2023-03-01T13:18:01;19.15;;;11.43;;
62848;SDS011;48941;49.516;8.286;2023-03-01T13:20:31;19.20;;;11.85;;
62848;SDS011;48941;49.516;8.286;2023-03-01T13:23:07;20.35;;;11.77;;
62848;SDS011;48941;49.516;8.286;2023-03-01T13:28:37;38.13;;;12.80;;
62848;SDS011;48941;49.516;8.286;2023-03-01T13:31:08;22.90;;;12.82;;
62848;SDS011;48941;49.516;8.286;2023-03-01T13:33:41;17.23;;;11.35;;
62848;SDS011;48941;49.516;8.286;2023-03-01T13:39:28;17.92;;;11.48;;
62848;SDS011;48941;49.516;8.286;2023-03-01T13:42:01;16.55;;;11.65;;
62848;SDS011;48941;49.516;8.286;2023-03-01T13:44:32;19.77;;;11.15;;
62848;SDS011;48941;49.516;8.286;2023-03-01T13:47:05;18.25;;;11.85;;
62848;SDS011;48941;49.516;8.286;2023-03-01T13:49:45;19.92;;;11.85;;
62848;SDS011;48941;49.516;8.286;2023-03-01T13:52:24;18.20;;;11.07;;
62848;SDS011;48941;49.516;8.286;2023-03-01T13:55:02;17.85;;;11.55;;
62848;SDS011;48941;49.516;8.286;2023-03-01T13:57:34;22.17;;;10.57;;
62848;SDS011;48941;49.516;8.286;2023-03-01T14:00:23;15.73;;;10.73;;
62848;SDS011;48941;49.516;8.286;2023-03-01T14:03:00;16.60;;;10.68;;
62848;SDS011;48941;49.516;8.286;2023-03-01T14:05:32;20.67;;;10.57;;
62848;SDS011;48941;49.516;8.286;2023-03-01T14:08:02;16.98;;;10.35;;
62848;SDS011;48941;49.516;8.286;2023-03-01T14:10:32;18.60;;;10.02;;
62848;SDS011;48941;49.516;8.286;2023-03-01T14:13:12;20.30;;;10.18;;
62848;SDS011;48941;49.516;8.286;2023-03-01T14:16:00;15.40;;;9.52;;
62848;SDS011;48941;49.516;8.286;2023-03-01T14:18:41;14.13;;;9.00;;
62848;SDS011;48941;49.516;8.286;2023-03-01T14:21:19;14.52;;;8.77;;
62848;SDS011;48941;49.516;8.286;2023-03-01T14:23:48;15.77;;;9.43;;
62848;SDS011;48941;49.516;8.286;2023-03-01T14:26:19;13.27;;;8.77;;
62848;SDS011;48941;49.516;8.286;2023-03-01T14:28:49;16.58;;;10.23;;
62848;SDS011;48941;49.516;8.286;2023-03-01T14:31:31;20.10;;;8.48;;
62848;SDS011;48941;49.516;8.286;2023-03-01T14:34:18;15.75;;;9.45;;
62848;SDS011;48941;49.516;8.286;2023-03-01T14:36:48;19.10;;;9.65;;
62848;SDS011;48941;49.516;8.286;2023-03-01T14:39:17;16.70;;;9.80;;
62848;SDS011;48941;49.516;8.286;2023-03-01T14:41:47;15.15;;;9.65;;
62848;SDS011;48941;49.516;8.286;2023-03-01T14:44:16;14.80;;;9.25;;
62848;SDS011;48941;49.516;8.286;2023-03-01T14:46:52;16.77;;;8.95;;
62848;SDS011;48941;49.516;8.286;2023-03-01T14:49:22;15.85;;;9.27;;
62848;SDS011;48941;49.516;8.286;2023-03-01T14:51:54;19.10;;;8.82;;
62848;SDS011;48941;49.516;8.286;2023-03-01T14:54:27;18.25;;;8.38;;
62848;SDS011;48941;49.516;8.286;2023-03-01T14:56:58;12.50;;;8.25;;
62848;SDS011;48941;49.516;8.286;2023-03-01T14:59:28;13.68;;;8.07;;
62848;SDS011;48941;49.516;8.286;2023-03-01T15:01:57;13.82;;;8.52;;
62848;SDS011;48941;49.516;8.286;2023-03-01T15:04:26;14.60;;;8.52;;
62848;SDS011;48941;49.516;8.286;2023-03-01T15:06:55;13.57;;;8.48;;